sensor_id;sensor_type;location;lat;lon;timestamp;pressure;altitude;pressure_sealevel;temperature;humidity
3697;BME280;60662;48.810;8.872;2023-02-21T08:32:35;96947.91;;;13.30;46.14
3697;BME280;60662;48.810;8.872;2023-02-21T08:33:37;96958.78;;;13.91;45.07
3697;BME280;60662;48.810;8.872;2023-02-21T08:34:38;96955.44;;;14.05;44.79
3697;BME280;60662;48.810;8.872;2023-02-21T08:35:40;96957.16;;;14.22;44.77
3697;BME280;60662;48.810;8.872;2023-02-21T08:36:42;96948.38;;;15.91;41.72
3697;BME280;60662;48.810;8.872;2023-02-21T08:37:48;96951.72;;;15.64;41.83
3697;BME280;60662;48.810;8.872;2023-02-21T08:38:50;96958.06;;;16.05;41.55
3697;BME280;60662;48.810;8.872;2023-02-21T08:39:51;96953.19;;;15.40;42.13
3697;BME280;60662;48.810;8.872;2023-02-21T08:40:53;96955.41;;;16.20;41.33
3697;BME280;60662;48.810;8.872;2023-02-21T08:41:57;96951.91;;;16.33;40.99
3697;BME280;60662;48.810;8.872;2023-02-21T08:42:59;96957.34;;;16.45;40.86
3697;BME280;60662;48.810;8.872;2023-02-21T08:44:00;96953.44;;;15.94;41.29
3697;BME280;60662;48.810;8.872;2023-02-21T08:45:02;96954.88;;;15.41;42.38
3697;BME280;60662;48.810;8.872;2023-02-21T08:46:04;96955.50;;;15.30;42.87
3697;BME280;60662;48.810;8.872;2023-02-21T08:47:05;96960.50;;;16.08;41.99
3697;BME280;60662;48.810;8.872;2023-02-21T08:48:07;96946.03;;;16.01;41.79
3697;BME280;60662;48.810;8.872;2023-02-21T08:49:09;96951.56;;;16.11;42.42
3697;BME280;60662;48.810;8.872;2023-02-21T08:50:11;96952.91;;;16.60;41.31
3697;BME280;60662;48.810;8.872;2023-02-21T08:51:12;96957.81;;;16.79;41.38
3697;BME280;60662;48.810;8.872;2023-02-21T08:52:16;96950.91;;;16.63;41.94
3697;BME280;60662;48.810;8.872;2023-02-21T08:53:19;96954.03;;;16.83;41.47
3697;BME280;60662;48.810;8.872;2023-02-21T08:54:20;96950.78;;;17.99;39.65
3697;BME280;60662;48.810;8.872;2023-02-21T08:55:22;96952.84;;;18.19;39.21
3697;BME280;60662;48.810;8.872;2023-02-21T08:56:24;96942.94;;;18.84;38.72
3697;BME280;60662;48.810;8.872;2023-02-21T08:57:26;96943.78;;;18.85;38.81
3697;BME280;60662;48.810;8.872;2023-02-21T08:58:27;96951.31;;;18.78;38.46
3697;BME280;60662;48.810;8.872;2023-02-21T08:59:29;96962.25;;;19.22;38.66
3697;BME280;60662;48.810;8.872;2023-02-21T09:00:33;96953.72;;;19.77;37.92
3697;BME280;60662;48.810;8.872;2023-02-21T09:01:35;96955.44;;;20.57;36.59
3697;BME280;60662;48.810;8.872;2023-02-21T09:02:37;96952.19;;;19.85;37.14
3697;BME280;60662;48.810;8.872;2023-02-21T09:03:40;96957.41;;;19.51;37.81
3697;BME280;60662;48.810;8.872;2023-02-21T09:04:42;96956.28;;;19.42;37.67
3697;BME280;60662;48.810;8.872;2023-02-21T09:05:44;96959.25;;;19.62;37.71
3697;BME280;60662;48.810;8.872;2023-02-21T09:06:45;96958.34;;;19.39;38.27
3697;BME280;60662;48.810;8.872;2023-02-21T09:07:47;96949.09;;;19.09;38.25
3697;BME280;60662;48.810;8.872;2023-02-21T09:08:49;96956.44;;;19.52;37.83
3697;BME280;60662;48.810;8.872;2023-02-21T09:09:51;96957.13;;;19.32;38.06
3697;BME280;60662;48.810;8.872;2023-02-21T09:10:52;96949.81;;;20.05;37.42
3697;BME280;60662;48.810;8.872;2023-02-21T09:11:55;96961.63;;;21.01;35.71
3697;BME280;60662;48.810;8.872;2023-02-21T09:12:58;96952.66;;;21.02;35.20
3697;BME280;60662;48.810;8.872;2023-02-21T09:14:00;96950.97;;;22.28;33.90
3697;BME280;60662;48.810;8.872;2023-02-21T09:15:01;96946.28;;;22.11;33.73
3697;BME280;60662;48.810;8.872;2023-02-21T09:16:03;96955.19;;;21.36;34.31
3697;BME280;60662;48.810;8.872;2023-02-21T09:17:07;96957.81;;;20.60;35.34
3697;BME280;60662;48.810;8.872;2023-02-21T09:18:09;96945.03;;;20.65;35.27
3697;BME280;60662;48.810;8.872;2023-02-21T09:19:11;96945.44;;;21.04;35.32
3697;BME280;60662;48.810;8.872;2023-02-21T09:20:16;96949.81;;;20.94;35.05
3697;BME280;60662;48.810;8.872;2023-02-21T09:21:18;96937.44;;;21.37;34.13
3697;BME280;60662;48.810;8.872;2023-02-21T09:22:19;96945.41;;;20.72;35.02
3697;BME280;60662;48.810;8.872;2023-02-21T09:23:25;96938.94;;;20.42;35.00
3697;BME280;60662;48.810;8.872;2023-02-21T09:24:29;96947.00;;;20.41;35.34
3697;BME280;60662;48.810;8.872;2023-02-21T09:25:30;96948.72;;;20.30;35.60
3697;BME280;60662;48.810;8.872;2023-02-21T09:26:32;96954.22;;;20.61;35.78
3697;BME280;60662;48.810;8.872;2023-02-21T09:27:33;96953.53;;;20.02;35.89
3697;BME280;60662;48.810;8.872;2023-02-21T09:28:37;96947.63;;;19.99;36.22
3697;BME280;60662;48.810;8.872;2023-02-21T09:29:43;96945.84;;;21.21;34.94
3697;BME280;60662;48.810;8.872;2023-02-21T09:30:48;96951.34;;;20.42;35.89
3697;BME280;60662;48.810;8.872;2023-02-21T09:31:51;96942.06;;;20.25;36.54
3697;BME280;60662;48.810;8.872;2023-02-21T09:32:54;96952.78;;;20.57;36.19
3697;BME280;60662;48.810;8.872;2023-02-21T09:33:55;96960.84;;;20.55;35.88
3697;BME280;60662;48.810;8.872;2023-02-21T09:34:57;96953.25;;;21.60;34.73
3697;BME280;60662;48.810;8.872;2023-02-21T09:35:59;96950.44;;;21.73;34.77
3697;BME280;60662;48.810;8.872;2023-02-21T09:37:04;96952.28;;;21.82;34.56
3697;BME280;60662;48.810;8.872;2023-02-21T09:38:07;96949.72;;;21.17;34.57
3697;BME280;60662;48.810;8.872;2023-02-21T09:39:09;96951.19;;;20.66;35.17
3697;BME280;60662;48.810;8.872;2023-02-21T09:41:26;96944.69;;;21.02;34.67
3697;BME280;60662;48.810;8.872;2023-02-21T09:42:29;96947.94;;;21.81;33.57
3697;BME280;60662;48.810;8.872;2023-02-21T09:43:37;96940.81;;;22.12;33.87
3697;BME280;60662;48.810;8.872;2023-02-21T09:44:39;96954.06;;;22.02;34.14
3697;BME280;60662;48.810;8.872;2023-02-21T09:45:41;96945.75;;;22.48;33.53
3697;BME280;60662;48.810;8.872;2023-02-21T09:46:47;96941.56;;;22.24;32.90
3697;BME280;60662;48.810;8.872;2023-02-21T09:47:53;96943.38;;;22.55;33.40
3697;BME280;60662;48.810;8.872;2023-02-21T09:48:56;96947.97;;;22.43;33.07
3697;BME280;60662;48.810;8.872;2023-02-21T09:50:12;96943.50;;;22.53;33.02
3697;BME280;60662;48.810;8.872;2023-02-21T09:51:15;96941.03;;;22.81;32.72
3697;BME280;60662;48.810;8.872;2023-02-21T09:52:26;96938.91;;;22.65;32.84
3697;BME280;60662;48.810;8.872;2023-02-21T09:53:42;96944.59;;;23.11;32.87
3697;BME280;60662;48.810;8.872;2023-02-21T09:54:46;96933.75;;;22.01;34.13
3697;BME280;60662;48.810;8.872;2023-02-21T09:55:56;96939.19;;;22.21;34.04
3697;BME280;60662;48.810;8.872;2023-02-21T09:57:04;96937.22;;;22.23;34.87
3697;BME280;60662;48.810;8.872;2023-02-21T09:58:13;96937.81;;;22.77;34.54
3697;BME280;60662;48.810;8.872;2023-02-21T09:59:15;96939.44;;;22.18;33.98
3697;BME280;60662;48.810;8.872;2023-02-21T10:00:22;96944.47;;;21.80;34.67
3697;BME280;60662;48.810;8.872;2023-02-21T10:05:20;96940.38;;;22.98;33.58
3697;BME280;60662;48.810;8.872;2023-02-21T10:06:47;96944.22;;;24.30;31.08
3697;BME280;60662;48.810;8.872;2023-02-21T10:08:03;96943.38;;;23.92;32.02
3697;BME280;60662;48.810;8.872;2023-02-21T10:09:24;96940.91;;;23.61;32.16
3697;BME280;60662;48.810;8.872;2023-02-21T10:10:58;96935.53;;;24.28;31.21
3697;BME280;60662;48.810;8.872;2023-02-21T10:13:48;96939.31;;;23.78;31.84
3697;BME280;60662;48.810;8.872;2023-02-21T10:16:28;96935.22;;;23.17;32.01
3697;BME280;60662;48.810;8.872;2023-02-21T10:17:49;96929.81;;;22.77;32.13
3697;BME280;60662;48.810;8.872;2023-02-21T10:20:52;96938.97;;;22.94;31.79
3697;BME280;60662;48.810;8.872;2023-02-21T10:21:55;96936.31;;;23.34;31.86
3697;BME280;60662;48.810;8.872;2023-02-21T10:23:00;96934.97;;;21.88;33.17
3697;BME280;60662;48.810;8.872;2023-02-21T10:24:10;96930.38;;;22.30;32.79
3697;BME280;60662;48.810;8.872;2023-02-21T10:25:27;96930.97;;;21.72;33.14
3697;BME280;60662;48.810;8.872;2023-02-21T10:26:37;96934.41;;;21.84;33.28
3697;BME280;60662;48.810;8.872;2023-02-21T10:27:42;96930.63;;;22.58;32.50
3697;BME280;60662;48.810;8.872;2023-02-21T10:28:43;96928.34;;;23.24;31.33
3697;BME280;60662;48.810;8.872;2023-02-21T10:29:56;96937.22;;;23.72;31.61
3697;BME280;60662;48.810;8.872;2023-02-21T10:31:07;96938.41;;;24.17;31.10
3697;BME280;60662;48.810;8.872;2023-02-21T10:32:09;96928.34;;;23.24;31.16
3697;BME280;60662;48.810;8.872;2023-02-21T10:33:10;96933.25;;;24.61;29.89
3697;BME280;60662;48.810;8.872;2023-02-21T10:34:39;96930.59;;;25.07;29.47
3697;BME280;60662;48.810;8.872;2023-02-21T10:35:47;96920.94;;;24.22;30.00
3697;BME280;60662;48.810;8.872;2023-02-21T10:36:49;96929.84;;;23.66;30.53
3697;BME280;60662;48.810;8.872;2023-02-21T10:37:53;96927.25;;;22.56;31.80
3697;BME280;60662;48.810;8.872;2023-02-21T10:39:05;96934.22;;;22.38;32.37
3697;BME280;60662;48.810;8.872;2023-02-21T10:40:33;96924.63;;;23.64;30.98
3697;BME280;60662;48.810;8.872;2023-02-21T10:41:38;96928.09;;;24.32;30.39
3697;BME280;60662;48.810;8.872;2023-02-21T10:42:48;96925.25;;;24.89;29.77
3697;BME280;60662;48.810;8.872;2023-02-21T10:43:55;96920.63;;;23.30;30.18
3697;BME280;60662;48.810;8.872;2023-02-21T10:45:01;96909.44;;;23.74;30.74
3697;BME280;60662;48.810;8.872;2023-02-21T10:46:23;96922.19;;;24.84;29.82
3697;BME280;60662;48.810;8.872;2023-02-21T10:47:47;96929.03;;;25.22;29.80
3697;BME280;60662;48.810;8.872;2023-02-21T10:48:54;96923.03;;;25.38;29.19
3697;BME280;60662;48.810;8.872;2023-02-21T10:50:02;96927.91;;;25.07;29.17
3697;BME280;60662;48.810;8.872;2023-02-21T10:51:11;96922.19;;;24.00;30.76
3697;BME280;60662;48.810;8.872;2023-02-21T10:52:16;96923.91;;;25.29;29.34
3697;BME280;60662;48.810;8.872;2023-02-21T10:53:28;96923.03;;;25.02;29.33
3697;BME280;60662;48.810;8.872;2023-02-21T10:54:30;96925.69;;;25.56;29.27
3697;BME280;60662;48.810;8.872;2023-02-21T10:55:35;96917.91;;;25.27;29.15
3697;BME280;60662;48.810;8.872;2023-02-21T10:56:37;96920.28;;;24.94;28.92
3697;BME280;60662;48.810;8.872;2023-02-21T10:57:42;96915.47;;;24.52;30.24
3697;BME280;60662;48.810;8.872;2023-02-21T10:59:52;96910.09;;;23.39;31.28
3697;BME280;60662;48.810;8.872;2023-02-21T11:00:53;96910.22;;;24.04;30.46
3697;BME280;60662;48.810;8.872;2023-02-21T11:01:56;96912.22;;;23.35;31.18
3697;BME280;60662;48.810;8.872;2023-02-21T11:03:05;96916.28;;;23.87;30.86
3697;BME280;60662;48.810;8.872;2023-02-21T11:05:18;96907.22;;;24.17;30.94
3697;BME280;60662;48.810;8.872;2023-02-21T11:06:43;96914.47;;;23.20;31.39
3697;BME280;60662;48.810;8.872;2023-02-21T11:08:01;96901.38;;;22.68;31.92
3697;BME280;60662;48.810;8.872;2023-02-21T11:09:23;96908.00;;;21.61;33.27
3697;BME280;60662;48.810;8.872;2023-02-21T11:10:36;96905.34;;;22.93;32.34
3697;BME280;60662;48.810;8.872;2023-02-21T11:11:41;96905.22;;;23.91;30.90
3697;BME280;60662;48.810;8.872;2023-02-21T11:12:42;96905.09;;;24.21;30.92
3697;BME280;60662;48.810;8.872;2023-02-21T11:13:44;96898.78;;;24.22;29.96
3697;BME280;60662;48.810;8.872;2023-02-21T11:16:18;96895.84;;;24.71;30.13
3697;BME280;60662;48.810;8.872;2023-02-21T11:17:32;96896.56;;;23.70;30.72
3697;BME280;60662;48.810;8.872;2023-02-21T11:18:33;96891.63;;;23.75;30.84
3697;BME280;60662;48.810;8.872;2023-02-21T11:21:13;96889.44;;;24.36;30.79
3697;BME280;60662;48.810;8.872;2023-02-21T11:23:35;96883.50;;;25.42;29.46
3697;BME280;60662;48.810;8.872;2023-02-21T11:26:06;96881.94;;;26.18;29.43
3697;BME280;60662;48.810;8.872;2023-02-21T11:27:11;96879.72;;;26.56;28.20
3697;BME280;60662;48.810;8.872;2023-02-21T11:29:20;96879.72;;;26.56;28.92
3697;BME280;60662;48.810;8.872;2023-02-21T11:30:24;96871.00;;;26.12;28.56
3697;BME280;60662;48.810;8.872;2023-02-21T11:31:28;96872.22;;;26.17;29.22
3697;BME280;60662;48.810;8.872;2023-02-21T11:32:36;96876.66;;;26.43;28.94
3697;BME280;60662;48.810;8.872;2023-02-21T11:33:50;96866.38;;;26.73;28.81
3697;BME280;60662;48.810;8.872;2023-02-21T11:35:00;96864.81;;;26.62;28.61
3697;BME280;60662;48.810;8.872;2023-02-21T11:36:12;96864.63;;;26.64;28.41
3697;BME280;60662;48.810;8.872;2023-02-21T11:37:15;96870.06;;;26.80;28.38
3697;BME280;60662;48.810;8.872;2023-02-21T11:38:38;96864.56;;;26.31;28.25
3697;BME280;60662;48.810;8.872;2023-02-21T11:39:49;96860.06;;;25.00;29.39
3697;BME280;60662;48.810;8.872;2023-02-21T11:40:51;96855.59;;;24.08;30.10
3697;BME280;60662;48.810;8.872;2023-02-21T11:41:54;96859.56;;;24.32;30.07
3697;BME280;60662;48.810;8.872;2023-02-21T11:43:18;96848.44;;;25.53;29.20
3697;BME280;60662;48.810;8.872;2023-02-21T11:44:35;96850.06;;;25.72;28.88
3697;BME280;60662;48.810;8.872;2023-02-21T11:45:43;96847.44;;;24.84;29.74
3697;BME280;60662;48.810;8.872;2023-02-21T11:46:50;96844.22;;;22.72;32.11
3697;BME280;60662;48.810;8.872;2023-02-21T11:48:01;96843.66;;;22.59;32.34
3697;BME280;60662;48.810;8.872;2023-02-21T11:49:23;96845.91;;;22.73;31.87
3697;BME280;60662;48.810;8.872;2023-02-21T11:50:29;96840.28;;;22.37;32.30
3697;BME280;60662;48.810;8.872;2023-02-21T11:51:42;96844.91;;;23.23;31.68
3697;BME280;60662;48.810;8.872;2023-02-21T11:52:55;96844.66;;;24.11;31.30
3697;BME280;60662;48.810;8.872;2023-02-21T11:54:02;96842.22;;;24.82;30.00
3697;BME280;60662;48.810;8.872;2023-02-21T11:55:16;96835.50;;;24.96;29.60
3697;BME280;60662;48.810;8.872;2023-02-21T11:56:37;96846.44;;;23.45;30.42
3697;BME280;60662;48.810;8.872;2023-02-21T12:06:13;96822.88;;;25.51;29.35
3697;BME280;60662;48.810;8.872;2023-02-21T12:07:53;96817.72;;;23.10;32.15
3697;BME280;60662;48.810;8.872;2023-02-21T12:09:19;96816.81;;;24.78;31.34
3697;BME280;60662;48.810;8.872;2023-02-21T12:16:00;96802.16;;;23.25;30.64
3697;BME280;60662;48.810;8.872;2023-02-21T12:23:10;96789.03;;;24.35;30.51
3697;BME280;60662;48.810;8.872;2023-02-21T12:25:55;96787.63;;;22.41;32.47
3697;BME280;60662;48.810;8.872;2023-02-21T12:27:12;96784.00;;;23.48;31.90
3697;BME280;60662;48.810;8.872;2023-02-21T12:30:39;96771.66;;;23.47;31.40
3697;BME280;60662;48.810;8.872;2023-02-21T12:33:44;96771.41;;;24.96;29.97
3697;BME280;60662;48.810;8.872;2023-02-21T12:36:34;96760.44;;;22.96;31.23
3697;BME280;60662;48.810;8.872;2023-02-21T12:46:09;96746.78;;;21.41;33.23
3697;BME280;60662;48.810;8.872;2023-02-21T12:47:20;96744.03;;;22.02;32.94
3697;BME280;60662;48.810;8.872;2023-02-21T12:48:30;96747.88;;;23.36;31.43
3697;BME280;60662;48.810;8.872;2023-02-21T12:49:44;96744.25;;;23.92;30.60
3697;BME280;60662;48.810;8.872;2023-02-21T12:50:57;96746.19;;;23.90;30.60
3697;BME280;60662;48.810;8.872;2023-02-21T12:52:33;96733.25;;;21.84;31.49
3697;BME280;60662;48.810;8.872;2023-02-21T12:53:42;96729.53;;;22.46;31.55
3697;BME280;60662;48.810;8.872;2023-02-21T12:54:55;96732.63;;;21.30;32.40
3697;BME280;60662;48.810;8.872;2023-02-21T12:56:11;96720.38;;;21.90;32.10
3697;BME280;60662;48.810;8.872;2023-02-21T12:57:17;96734.59;;;20.76;33.30
3697;BME280;60662;48.810;8.872;2023-02-21T12:58:29;96727.81;;;21.14;33.12
3697;BME280;60662;48.810;8.872;2023-02-21T13:00:19;96722.97;;;21.60;32.54
3697;BME280;60662;48.810;8.872;2023-02-21T13:01:30;96718.31;;;21.12;32.69
3697;BME280;60662;48.810;8.872;2023-02-21T13:02:44;96703.44;;;20.99;32.83
3697;BME280;60662;48.810;8.872;2023-02-21T13:04:12;96717.59;;;21.50;32.09
3697;BME280;60662;48.810;8.872;2023-02-21T13:05:19;96706.09;;;21.40;33.01
3697;BME280;60662;48.810;8.872;2023-02-21T13:06:55;96712.88;;;21.54;32.37
3697;BME280;60662;48.810;8.872;2023-02-21T13:08:02;96704.13;;;21.73;32.41
3697;BME280;60662;48.810;8.872;2023-02-21T13:10:21;96705.59;;;22.46;31.52
3697;BME280;60662;48.810;8.872;2023-02-21T13:11:48;96707.84;;;22.60;31.00
3697;BME280;60662;48.810;8.872;2023-02-21T13:13:14;96699.97;;;22.10;32.22
3697;BME280;60662;48.810;8.872;2023-02-21T13:14:20;96701.13;;;22.37;31.75
3697;BME280;60662;48.810;8.872;2023-02-21T13:15:28;96702.09;;;21.15;32.58
3697;BME280;60662;48.810;8.872;2023-02-21T13:16:30;96694.81;;;21.48;32.04
3697;BME280;60662;48.810;8.872;2023-02-21T13:17:32;96695.78;;;21.06;33.02
3697;BME280;60662;48.810;8.872;2023-02-21T13:18:37;96693.44;;;21.13;32.88
3697;BME280;60662;48.810;8.872;2023-02-21T13:19:52;96682.47;;;20.96;32.61
3697;BME280;60662;48.810;8.872;2023-02-21T13:21:24;96696.63;;;21.07;32.58
3697;BME280;60662;48.810;8.872;2023-02-21T13:24:50;96683.34;;;21.47;32.20
3697;BME280;60662;48.810;8.872;2023-02-21T13:28:40;96686.81;;;22.57;31.38
3697;BME280;60662;48.810;8.872;2023-02-21T13:29:44;96685.50;;;23.28;30.41
3697;BME280;60662;48.810;8.872;2023-02-21T13:30:57;96670.44;;;22.32;30.84
3697;BME280;60662;48.810;8.872;2023-02-21T13:32:05;96681.75;;;20.94;32.23
3697;BME280;60662;48.810;8.872;2023-02-21T13:35:00;96676.41;;;20.63;32.75
3697;BME280;60662;48.810;8.872;2023-02-21T13:37:28;96668.47;;;19.88;34.17
3697;BME280;60662;48.810;8.872;2023-02-21T13:38:30;96669.66;;;20.17;34.43
3697;BME280;60662;48.810;8.872;2023-02-21T13:39:33;96662.44;;;19.31;34.37
3697;BME280;60662;48.810;8.872;2023-02-21T13:41:25;96663.38;;;20.18;34.25
3697;BME280;60662;48.810;8.872;2023-02-21T13:42:18;96663.00;;;21.27;32.95
3697;BME280;60662;48.810;8.872;2023-02-21T13:43:26;96658.69;;;21.26;33.08
3697;BME280;60662;48.810;8.872;2023-02-21T13:44:33;96651.84;;;21.83;31.64
3697;BME280;60662;48.810;8.872;2023-02-21T13:45:35;96652.69;;;22.53;31.27
3697;BME280;60662;48.810;8.872;2023-02-21T13:50:45;96642.72;;;23.02;30.35
3697;BME280;60662;48.810;8.872;2023-02-21T13:51:48;96644.00;;;22.21;31.56
3697;BME280;60662;48.810;8.872;2023-02-21T13:53:00;96645.38;;;21.57;32.39
3697;BME280;60662;48.810;8.872;2023-02-21T13:54:10;96627.28;;;20.48;33.43
3697;BME280;60662;48.810;8.872;2023-02-21T13:56:39;96638.03;;;20.98;32.69
3697;BME280;60662;48.810;8.872;2023-02-21T13:59:30;96627.38;;;20.88;32.38
3697;BME280;60662;48.810;8.872;2023-02-21T14:01:40;96627.78;;;20.84;32.78
3697;BME280;60662;48.810;8.872;2023-02-21T14:03:55;96628.19;;;20.58;33.22
3697;BME280;60662;48.810;8.872;2023-02-21T14:05:02;96622.72;;;20.71;33.37
3697;BME280;60662;48.810;8.872;2023-02-21T14:07:09;96629.00;;;20.06;33.96
3697;BME280;60662;48.810;8.872;2023-02-21T14:09:24;96627.75;;;20.74;33.45
3697;BME280;60662;48.810;8.872;2023-02-21T14:10:45;96623.28;;;21.76;32.16
3697;BME280;60662;48.810;8.872;2023-02-21T14:11:49;96614.06;;;21.70;31.82
3697;BME280;60662;48.810;8.872;2023-02-21T14:12:58;96623.03;;;21.18;32.09
3697;BME280;60662;48.810;8.872;2023-02-21T14:14:27;96620.03;;;21.52;32.24
3697;BME280;60662;48.810;8.872;2023-02-21T14:15:42;96620.78;;;21.84;32.17
3697;BME280;60662;48.810;8.872;2023-02-21T14:16:51;96617.75;;;21.28;32.61
3697;BME280;60662;48.810;8.872;2023-02-21T14:17:53;96618.06;;;21.45;32.47
3697;BME280;60662;48.810;8.872;2023-02-21T14:19:09;96611.88;;;21.25;32.44
3697;BME280;60662;48.810;8.872;2023-02-21T14:20:16;96608.41;;;20.62;32.99
3697;BME280;60662;48.810;8.872;2023-02-21T14:21:35;96612.00;;;20.30;33.56
3697;BME280;60662;48.810;8.872;2023-02-21T14:22:37;96608.13;;;19.81;34.04
3697;BME280;60662;48.810;8.872;2023-02-21T14:23:48;96606.59;;;20.42;33.15
3697;BME280;60662;48.810;8.872;2023-02-21T14:24:51;96610.03;;;21.15;32.75
3697;BME280;60662;48.810;8.872;2023-02-21T14:26:04;96608.09;;;21.27;32.51
3697;BME280;60662;48.810;8.872;2023-02-21T14:31:01;96588.41;;;20.58;33.30
3697;BME280;60662;48.810;8.872;2023-02-21T14:33:23;96596.00;;;22.13;31.32
3697;BME280;60662;48.810;8.872;2023-02-21T14:34:35;96601.25;;;22.62;31.04
3697;BME280;60662;48.810;8.872;2023-02-21T14:35:46;96599.28;;;23.29;30.42
3697;BME280;60662;48.810;8.872;2023-02-21T14:36:51;96596.75;;;23.56;29.75
3697;BME280;60662;48.810;8.872;2023-02-21T14:39:02;96593.03;;;21.37;32.05
3697;BME280;60662;48.810;8.872;2023-02-21T14:41:30;96597.66;;;22.24;32.11
3697;BME280;60662;48.810;8.872;2023-02-21T14:45:15;96589.91;;;24.34;29.59
3697;BME280;60662;48.810;8.872;2023-02-21T14:47:34;96589.34;;;24.74;28.90
3697;BME280;60662;48.810;8.872;2023-02-21T14:51:41;96584.53;;;24.70;29.18
3697;BME280;60662;48.810;8.872;2023-02-21T14:56:34;96584.22;;;22.15;31.03
3697;BME280;60662;48.810;8.872;2023-02-21T15:01:57;96583.91;;;22.58;33.04
3697;BME280;60662;48.810;8.872;2023-02-21T15:03:09;96571.91;;;23.55;32.64
3697;BME280;60662;48.810;8.872;2023-02-21T15:05:51;96579.09;;;24.09;32.53
3697;BME280;60662;48.810;8.872;2023-02-21T15:08:17;96578.63;;;24.40;32.91
3697;BME280;60662;48.810;8.872;2023-02-21T15:09:20;96573.34;;;24.22;33.48
3697;BME280;60662;48.810;8.872;2023-02-21T15:10:27;96564.81;;;24.44;33.49
3697;BME280;60662;48.810;8.872;2023-02-21T15:11:35;96570.16;;;24.18;33.46
3697;BME280;60662;48.810;8.872;2023-02-21T15:12:42;96570.09;;;24.36;32.80
3697;BME280;60662;48.810;8.872;2023-02-21T15:13:44;96569.19;;;24.27;33.10
3697;BME280;60662;48.810;8.872;2023-02-21T15:14:49;96571.94;;;24.36;32.63
3697;BME280;60662;48.810;8.872;2023-02-21T15:16:01;96566.28;;;24.12;33.08
3697;BME280;60662;48.810;8.872;2023-02-21T15:17:13;96568.38;;;24.27;32.91
3697;BME280;60662;48.810;8.872;2023-02-21T15:19:33;96563.75;;;24.11;33.20
3697;BME280;60662;48.810;8.872;2023-02-21T15:20:40;96569.06;;;24.29;32.95
3697;BME280;60662;48.810;8.872;2023-02-21T15:21:42;96561.19;;;24.27;32.61
3697;BME280;60662;48.810;8.872;2023-02-21T15:22:44;96559.28;;;24.11;33.22
3697;BME280;60662;48.810;8.872;2023-02-21T15:23:48;96562.25;;;24.35;33.20
3697;BME280;60662;48.810;8.872;2023-02-21T15:25:13;96553.19;;;24.01;33.63
3697;BME280;60662;48.810;8.872;2023-02-21T15:26:21;96560.78;;;24.14;33.44
3697;BME280;60662;48.810;8.872;2023-02-21T15:27:23;96560.78;;;24.14;33.48
3697;BME280;60662;48.810;8.872;2023-02-21T15:28:30;96557.69;;;24.01;33.54
3697;BME280;60662;48.810;8.872;2023-02-21T15:29:32;96557.84;;;23.99;33.34
3697;BME280;60662;48.810;8.872;2023-02-21T15:30:36;96558.38;;;23.85;33.79
3697;BME280;60662;48.810;8.872;2023-02-21T15:31:44;96562.81;;;23.94;33.56
3697;BME280;60662;48.810;8.872;2023-02-21T15:33:10;96557.75;;;24.09;33.48
3697;BME280;60662;48.810;8.872;2023-02-21T15:34:27;96559.72;;;24.07;33.66
3697;BME280;60662;48.810;8.872;2023-02-21T15:35:33;96556.31;;;23.96;33.78
3697;BME280;60662;48.810;8.872;2023-02-21T15:36:35;96555.09;;;23.73;33.84
3697;BME280;60662;48.810;8.872;2023-02-21T15:37:38;96542.06;;;23.88;33.94
3697;BME280;60662;48.810;8.872;2023-02-21T15:38:42;96555.00;;;24.01;33.64
3697;BME280;60662;48.810;8.872;2023-02-21T15:39:55;96546.09;;;23.92;33.80
3697;BME280;60662;48.810;8.872;2023-02-21T15:42:21;96544.66;;;23.61;33.94
3697;BME280;60662;48.810;8.872;2023-02-21T15:43:29;96543.38;;;23.66;34.00
3697;BME280;60662;48.810;8.872;2023-02-21T15:44:43;96544.28;;;23.38;34.55
3697;BME280;60662;48.810;8.872;2023-02-21T15:45:47;96549.28;;;23.41;34.70
3697;BME280;60662;48.810;8.872;2023-02-21T15:47:54;96539.50;;;22.86;35.24
3697;BME280;60662;48.810;8.872;2023-02-21T15:49:00;96541.78;;;22.81;35.28
3697;BME280;60662;48.810;8.872;2023-02-21T15:50:35;96547.34;;;22.60;35.53
3697;BME280;60662;48.810;8.872;2023-02-21T15:51:37;96543.94;;;22.67;35.87
3697;BME280;60662;48.810;8.872;2023-02-21T15:54:20;96554.97;;;22.35;35.94
3697;BME280;60662;48.810;8.872;2023-02-21T15:56:24;96546.94;;;21.68;36.82
3697;BME280;60662;48.810;8.872;2023-02-21T15:57:28;96527.75;;;21.35;37.55
3697;BME280;60662;48.810;8.872;2023-02-21T15:58:30;96538.88;;;20.99;38.45
3697;BME280;60662;48.810;8.872;2023-02-21T15:59:31;96541.63;;;20.88;38.83
3697;BME280;60662;48.810;8.872;2023-02-21T16:01:38;96533.06;;;20.44;39.65
3697;BME280;60662;48.810;8.872;2023-02-21T16:02:39;96536.88;;;19.99;40.29
3697;BME280;60662;48.810;8.872;2023-02-21T16:03:42;96534.56;;;19.73;40.83
3697;BME280;60662;48.810;8.872;2023-02-21T16:04:49;96538.94;;;19.63;41.00
3697;BME280;60662;48.810;8.872;2023-02-21T16:05:52;96543.66;;;19.59;41.12
3697;BME280;60662;48.810;8.872;2023-02-21T16:06:56;96528.31;;;19.53;41.29
3697;BME280;60662;48.810;8.872;2023-02-21T16:08:02;96543.09;;;19.55;41.37
3697;BME280;60662;48.810;8.872;2023-02-21T16:09:17;96525.78;;;19.19;41.82
3697;BME280;60662;48.810;8.872;2023-02-21T16:10:23;96519.81;;;18.94;42.49
3697;BME280;60662;48.810;8.872;2023-02-21T16:11:49;96535.19;;;18.77;42.72
3697;BME280;60662;48.810;8.872;2023-02-21T16:12:55;96536.28;;;18.52;43.36
3697;BME280;60662;48.810;8.872;2023-02-21T16:13:57;96525.72;;;18.52;43.68
3697;BME280;60662;48.810;8.872;2023-02-21T16:15:00;96527.66;;;18.39;43.56
3697;BME280;60662;48.810;8.872;2023-02-21T16:16:03;96527.78;;;18.26;43.71
3697;BME280;60662;48.810;8.872;2023-02-21T16:18:26;96531.06;;;17.94;44.48
3697;BME280;60662;48.810;8.872;2023-02-21T16:19:30;96530.28;;;17.69;44.75
3697;BME280;60662;48.810;8.872;2023-02-21T16:21:35;96535.72;;;17.43;45.39
3697;BME280;60662;48.810;8.872;2023-02-21T16:22:38;96535.09;;;17.40;45.13
3697;BME280;60662;48.810;8.872;2023-02-21T16:24:29;96528.53;;;16.84;45.98
3697;BME280;60662;48.810;8.872;2023-02-21T16:25:31;96535.16;;;16.90;46.10
3697;BME280;60662;48.810;8.872;2023-02-21T16:26:33;96534.44;;;16.88;46.15
3697;BME280;60662;48.810;8.872;2023-02-21T16:27:36;96529.47;;;16.96;45.72
3697;BME280;60662;48.810;8.872;2023-02-21T16:28:41;96542.22;;;16.89;46.02